sensor_id;sensor_type;location;lat;lon;timestamp;temperature;humidity
13389;DHT22;6764;53.250;10.410;2023-02-15T00:00:16;6.10;99.90
13389;DHT22;6764;53.250;10.410;2023-02-15T00:02:41;6.20;99.90
13389;DHT22;6764;53.250;10.410;2023-02-15T00:05:08;6.20;99.90
13389;DHT22;6764;53.250;10.410;2023-02-15T00:07:33;6.30;99.90
13389;DHT22;6764;53.250;10.410;2023-02-15T00:09:59;6.30;99.90
13389;DHT22;6764;53.250;10.410;2023-02-15T00:12:24;6.20;99.90
13389;DHT22;6764;53.250;10.410;2023-02-15T00:14:50;6.30;99.90
13389;DHT22;6764;53.250;10.410;2023-02-15T00:17:16;6.40;99.90
13389;DHT22;6764;53.250;10.410;2023-02-15T00:19:41;6.50;99.90
13389;DHT22;6764;53.250;10.410;2023-02-15T00:22:07;6.50;99.90
13389;DHT22;6764;53.250;10.410;2023-02-15T00:24:33;6.50;99.90
13389;DHT22;6764;53.250;10.410;2023-02-15T00:26:58;6.60;99.90
13389;DHT22;6764;53.250;10.410;2023-02-15T00:29:24;6.50;99.90
13389;DHT22;6764;53.250;10.410;2023-02-15T00:31:50;6.50;99.90
13389;DHT22;6764;53.250;10.410;2023-02-15T00:34:20;6.50;99.90
13389;DHT22;6764;53.250;10.410;2023-02-15T00:36:46;6.40;99.90
13389;DHT22;6764;53.250;10.410;2023-02-15T00:39:12;6.20;99.90
13389;DHT22;6764;53.250;10.410;2023-02-15T00:41:38;6.10;99.90
13389;DHT22;6764;53.250;10.410;2023-02-15T00:44:04;6.20;99.90
13389;DHT22;6764;53.250;10.410;2023-02-15T00:46:30;6.20;99.90
13389;DHT22;6764;53.250;10.410;2023-02-15T00:48:56;6.10;99.90
13389;DHT22;6764;53.250;10.410;2023-02-15T00:51:22;6.20;99.90
13389;DHT22;6764;53.250;10.410;2023-02-15T00:53:48;6.20;99.90
13389;DHT22;6764;53.250;10.410;2023-02-15T00:56:14;6.20;99.90
13389;DHT22;6764;53.250;10.410;2023-02-15T00:58:39;6.10;99.90
13389;DHT22;6764;53.250;10.410;2023-02-15T01:01:08;6.20;99.90
13389;DHT22;6764;53.250;10.410;2023-02-15T01:03:34;6.10;99.90
13389;DHT22;6764;53.250;10.410;2023-02-15T01:06:00;6.10;99.90
13389;DHT22;6764;53.250;10.410;2023-02-15T01:08:26;6.00;99.90
13389;DHT22;6764;53.250;10.410;2023-02-15T01:10:52;6.00;99.90
13389;DHT22;6764;53.250;10.410;2023-02-15T01:13:18;5.90;99.90
13389;DHT22;6764;53.250;10.410;2023-02-15T01:15:44;5.90;99.90
13389;DHT22;6764;53.250;10.410;2023-02-15T01:18:11;5.90;99.90
13389;DHT22;6764;53.250;10.410;2023-02-15T01:20:39;5.80;99.90
13389;DHT22;6764;53.250;10.410;2023-02-15T01:23:06;5.80;99.90
13389;DHT22;6764;53.250;10.410;2023-02-15T01:25:33;5.80;99.90
13389;DHT22;6764;53.250;10.410;2023-02-15T01:27:59;5.80;99.90
13389;DHT22;6764;53.250;10.410;2023-02-15T01:30:25;5.80;99.90
13389;DHT22;6764;53.250;10.410;2023-02-15T01:32:51;5.80;99.90
13389;DHT22;6764;53.250;10.410;2023-02-15T01:35:17;5.70;99.90
13389;DHT22;6764;53.250;10.410;2023-02-15T01:37:42;5.70;99.90
13389;DHT22;6764;53.250;10.410;2023-02-15T01:40:13;5.70;99.90
13389;DHT22;6764;53.250;10.410;2023-02-15T01:42:39;5.70;99.90
13389;DHT22;6764;53.250;10.410;2023-02-15T01:45:27;5.70;99.90
13389;DHT22;6764;53.250;10.410;2023-02-15T01:48:06;5.60;99.90
13389;DHT22;6764;53.250;10.410;2023-02-15T01:50:44;5.60;99.90
13389;DHT22;6764;53.250;10.410;2023-02-15T01:53:27;5.60;99.90
13389;DHT22;6764;53.250;10.410;2023-02-15T01:55:56;5.60;99.90
13389;DHT22;6764;53.250;10.410;2023-02-15T01:58:25;5.60;99.90
13389;DHT22;6764;53.250;10.410;2023-02-15T02:00:52;5.60;99.90
13389;DHT22;6764;53.250;10.410;2023-02-15T02:06:10;5.70;99.90
13389;DHT22;6764;53.250;10.410;2023-02-15T02:08:36;5.60;99.90
13389;DHT22;6764;53.250;10.410;2023-02-15T02:11:02;5.40;99.90
13389;DHT22;6764;53.250;10.410;2023-02-15T02:13:28;5.30;99.90
13389;DHT22;6764;53.250;10.410;2023-02-15T02:16:02;5.20;99.90
13389;DHT22;6764;53.250;10.410;2023-02-15T02:18:55;5.00;99.90
13389;DHT22;6764;53.250;10.410;2023-02-15T02:27:18;5.40;99.90
13389;DHT22;6764;53.250;10.410;2023-02-15T02:29:57;5.50;99.90
13389;DHT22;6764;53.250;10.410;2023-02-15T02:38:21;5.40;99.90
13389;DHT22;6764;53.250;10.410;2023-02-15T02:43:53;5.30;99.90
13389;DHT22;6764;53.250;10.410;2023-02-15T02:46:53;5.20;99.90
13389;DHT22;6764;53.250;10.410;2023-02-15T02:49:30;5.20;99.90
13389;DHT22;6764;53.250;10.410;2023-02-15T02:52:01;5.20;99.90
13389;DHT22;6764;53.250;10.410;2023-02-15T02:54:28;5.30;99.90
13389;DHT22;6764;53.250;10.410;2023-02-15T02:56:55;5.30;99.90
13389;DHT22;6764;53.250;10.410;2023-02-15T02:59:30;5.30;99.90
13389;DHT22;6764;53.250;10.410;2023-02-15T03:02:05;5.20;99.90
13389;DHT22;6764;53.250;10.410;2023-02-15T03:04:36;5.20;99.90
13389;DHT22;6764;53.250;10.410;2023-02-15T03:07:07;5.20;99.90
13389;DHT22;6764;53.250;10.410;2023-02-15T03:09:38;5.30;99.90
13389;DHT22;6764;53.250;10.410;2023-02-15T03:12:17;5.30;99.90
13389;DHT22;6764;53.250;10.410;2023-02-15T03:14:48;5.30;99.90
13389;DHT22;6764;53.250;10.410;2023-02-15T03:17:15;5.30;99.90
13389;DHT22;6764;53.250;10.410;2023-02-15T03:19:44;5.30;99.90
13389;DHT22;6764;53.250;10.410;2023-02-15T03:24:41;5.20;99.90
13389;DHT22;6764;53.250;10.410;2023-02-15T03:27:15;5.10;99.90
13389;DHT22;6764;53.250;10.410;2023-02-15T03:29:47;5.00;99.90
13389;DHT22;6764;53.250;10.410;2023-02-15T03:32:15;5.10;99.90
13389;DHT22;6764;53.250;10.410;2023-02-15T03:34:42;4.90;99.90
13389;DHT22;6764;53.250;10.410;2023-02-15T03:40:03;4.90;99.90
13389;DHT22;6764;53.250;10.410;2023-02-15T03:42:55;4.90;99.90
13389;DHT22;6764;53.250;10.410;2023-02-15T03:45:26;4.80;99.90
13389;DHT22;6764;53.250;10.410;2023-02-15T03:47:56;4.90;99.90
13389;DHT22;6764;53.250;10.410;2023-02-15T03:50:33;4.90;99.90
13389;DHT22;6764;53.250;10.410;2023-02-15T03:53:21;5.00;99.90
13389;DHT22;6764;53.250;10.410;2023-02-15T03:55:53;5.00;99.90
13389;DHT22;6764;53.250;10.410;2023-02-15T03:58:19;5.00;99.90
13389;DHT22;6764;53.250;10.410;2023-02-15T04:01:09;5.00;99.90
13389;DHT22;6764;53.250;10.410;2023-02-15T04:04:03;4.90;99.90
13389;DHT22;6764;53.250;10.410;2023-02-15T04:06:32;4.90;99.90
13389;DHT22;6764;53.250;10.410;2023-02-15T04:08:57;4.90;99.90
13389;DHT22;6764;53.250;10.410;2023-02-15T04:11:41;4.80;99.90
13389;DHT22;6764;53.250;10.410;2023-02-15T04:14:07;4.70;99.90
13389;DHT22;6764;53.250;10.410;2023-02-15T04:16:51;4.60;99.90
13389;DHT22;6764;53.250;10.410;2023-02-15T04:19:16;4.50;99.90
13389;DHT22;6764;53.250;10.410;2023-02-15T04:22:00;4.40;99.90
13389;DHT22;6764;53.250;10.410;2023-02-15T04:24:48;4.30;99.90
13389;DHT22;6764;53.250;10.410;2023-02-15T04:27:32;4.40;99.90
13389;DHT22;6764;53.250;10.410;2023-02-15T04:29:57;4.30;99.90
13389;DHT22;6764;53.250;10.410;2023-02-15T04:32:23;4.40;99.90
13389;DHT22;6764;53.250;10.410;2023-02-15T04:34:48;4.40;99.90
13389;DHT22;6764;53.250;10.410;2023-02-15T04:37:14;4.30;99.90
13389;DHT22;6764;53.250;10.410;2023-02-15T04:39:39;4.30;99.90
13389;DHT22;6764;53.250;10.410;2023-02-15T04:42:05;4.20;99.90
13389;DHT22;6764;53.250;10.410;2023-02-15T04:44:30;4.20;99.90
13389;DHT22;6764;53.250;10.410;2023-02-15T04:46:56;4.20;99.90
13389;DHT22;6764;53.250;10.410;2023-02-15T04:49:22;4.20;99.90
13389;DHT22;6764;53.250;10.410;2023-02-15T04:51:47;4.20;99.90
13389;DHT22;6764;53.250;10.410;2023-02-15T04:54:13;4.20;99.90
13389;DHT22;6764;53.250;10.410;2023-02-15T04:56:39;4.20;99.90
13389;DHT22;6764;53.250;10.410;2023-02-15T04:59:05;4.00;99.90
13389;DHT22;6764;53.250;10.410;2023-02-15T05:01:31;4.10;99.90
13389;DHT22;6764;53.250;10.410;2023-02-15T05:03:57;4.10;99.90
13389;DHT22;6764;53.250;10.410;2023-02-15T05:06:22;4.00;99.90
13389;DHT22;6764;53.250;10.410;2023-02-15T05:08:48;3.90;99.90
13389;DHT22;6764;53.250;10.410;2023-02-15T05:11:13;3.80;99.90
13389;DHT22;6764;53.250;10.410;2023-02-15T05:13:39;3.70;99.90
13389;DHT22;6764;53.250;10.410;2023-02-15T05:16:05;3.80;99.90
13389;DHT22;6764;53.250;10.410;2023-02-15T05:18:30;4.00;99.90
13389;DHT22;6764;53.250;10.410;2023-02-15T05:20:56;4.10;99.90
13389;DHT22;6764;53.250;10.410;2023-02-15T05:23:21;4.00;99.90
13389;DHT22;6764;53.250;10.410;2023-02-15T05:25:48;3.90;99.90
13389;DHT22;6764;53.250;10.410;2023-02-15T05:28:32;3.80;99.90
13389;DHT22;6764;53.250;10.410;2023-02-15T05:33:32;3.70;99.90
13389;DHT22;6764;53.250;10.410;2023-02-15T05:35:58;3.50;99.90
13389;DHT22;6764;53.250;10.410;2023-02-15T05:38:24;3.40;99.90
13389;DHT22;6764;53.250;10.410;2023-02-15T05:40:51;3.40;99.90
13389;DHT22;6764;53.250;10.410;2023-02-15T05:43:16;3.30;99.90
13389;DHT22;6764;53.250;10.410;2023-02-15T05:45:50;3.30;99.90
13389;DHT22;6764;53.250;10.410;2023-02-15T05:48:17;3.40;99.90
13389;DHT22;6764;53.250;10.410;2023-02-15T05:50:43;3.30;99.90
13389;DHT22;6764;53.250;10.410;2023-02-15T05:53:08;3.40;99.90
13389;DHT22;6764;53.250;10.410;2023-02-15T05:55:36;3.40;99.90
13389;DHT22;6764;53.250;10.410;2023-02-15T05:58:02;3.50;99.90
13389;DHT22;6764;53.250;10.410;2023-02-15T06:00:27;3.50;99.90
13389;DHT22;6764;53.250;10.410;2023-02-15T06:02:53;3.40;99.90
13389;DHT22;6764;53.250;10.410;2023-02-15T06:05:18;3.30;99.90
13389;DHT22;6764;53.250;10.410;2023-02-15T06:07:44;3.30;99.90
13389;DHT22;6764;53.250;10.410;2023-02-15T06:10:10;3.30;99.90
13389;DHT22;6764;53.250;10.410;2023-02-15T06:12:36;3.40;99.90
13389;DHT22;6764;53.250;10.410;2023-02-15T06:15:02;3.40;99.90
13389;DHT22;6764;53.250;10.410;2023-02-15T06:17:28;3.50;99.90
13389;DHT22;6764;53.250;10.410;2023-02-15T06:19:53;3.40;99.90
13389;DHT22;6764;53.250;10.410;2023-02-15T06:22:19;3.50;99.90
13389;DHT22;6764;53.250;10.410;2023-02-15T06:24:46;3.60;99.90
13389;DHT22;6764;53.250;10.410;2023-02-15T06:27:11;3.60;99.90
13389;DHT22;6764;53.250;10.410;2023-02-15T06:29:37;3.70;99.90
13389;DHT22;6764;53.250;10.410;2023-02-15T06:32:03;3.70;99.90
13389;DHT22;6764;53.250;10.410;2023-02-15T06:34:29;3.70;99.90
13389;DHT22;6764;53.250;10.410;2023-02-15T06:36:55;3.60;99.90
13389;DHT22;6764;53.250;10.410;2023-02-15T06:39:20;3.50;99.90
13389;DHT22;6764;53.250;10.410;2023-02-15T06:41:46;3.40;99.90
13389;DHT22;6764;53.250;10.410;2023-02-15T06:44:11;3.50;99.90
13389;DHT22;6764;53.250;10.410;2023-02-15T06:46:37;3.40;99.90
13389;DHT22;6764;53.250;10.410;2023-02-15T06:49:02;3.40;99.90
13389;DHT22;6764;53.250;10.410;2023-02-15T06:51:28;3.50;99.90
13389;DHT22;6764;53.250;10.410;2023-02-15T06:53:54;3.60;99.90
13389;DHT22;6764;53.250;10.410;2023-02-15T06:56:19;3.60;99.90
13389;DHT22;6764;53.250;10.410;2023-02-15T06:58:45;3.60;99.90
13389;DHT22;6764;53.250;10.410;2023-02-15T07:01:15;3.50;99.90
13389;DHT22;6764;53.250;10.410;2023-02-15T07:03:41;3.60;99.90
13389;DHT22;6764;53.250;10.410;2023-02-15T07:06:06;3.40;99.90
13389;DHT22;6764;53.250;10.410;2023-02-15T07:08:34;3.40;99.90
13389;DHT22;6764;53.250;10.410;2023-02-15T07:11:00;3.20;99.90
13389;DHT22;6764;53.250;10.410;2023-02-15T07:13:45;3.30;99.90
13389;DHT22;6764;53.250;10.410;2023-02-15T07:16:11;3.30;99.90
13389;DHT22;6764;53.250;10.410;2023-02-15T07:18:38;3.40;99.90
13389;DHT22;6764;53.250;10.410;2023-02-15T07:21:04;3.30;99.90
13389;DHT22;6764;53.250;10.410;2023-02-15T07:23:36;3.40;99.90
13389;DHT22;6764;53.250;10.410;2023-02-15T07:26:03;3.40;99.90
13389;DHT22;6764;53.250;10.410;2023-02-15T07:28:30;3.30;99.90
13389;DHT22;6764;53.250;10.410;2023-02-15T07:30:55;3.50;99.90
13389;DHT22;6764;53.250;10.410;2023-02-15T07:33:30;3.50;99.90
13389;DHT22;6764;53.250;10.410;2023-02-15T07:35:58;3.60;99.90
13389;DHT22;6764;53.250;10.410;2023-02-15T07:38:30;3.60;99.90
13389;DHT22;6764;53.250;10.410;2023-02-15T07:41:04;3.70;99.90
13389;DHT22;6764;53.250;10.410;2023-02-15T07:43:32;3.60;99.90
13389;DHT22;6764;53.250;10.410;2023-02-15T07:46:03;3.60;99.90
13389;DHT22;6764;53.250;10.410;2023-02-15T07:48:28;3.60;99.90
13389;DHT22;6764;53.250;10.410;2023-02-15T07:50:56;3.60;99.90
13389;DHT22;6764;53.250;10.410;2023-02-15T07:53:23;3.60;99.90
13389;DHT22;6764;53.250;10.410;2023-02-15T07:55:49;3.60;99.90
13389;DHT22;6764;53.250;10.410;2023-02-15T07:58:14;3.60;99.90
13389;DHT22;6764;53.250;10.410;2023-02-15T08:00:40;3.70;99.90
13389;DHT22;6764;53.250;10.410;2023-02-15T08:03:27;3.70;99.90
13389;DHT22;6764;53.250;10.410;2023-02-15T08:05:59;3.70;99.90
13389;DHT22;6764;53.250;10.410;2023-02-15T08:08:25;3.80;99.90
13389;DHT22;6764;53.250;10.410;2023-02-15T08:13:47;3.90;99.90
13389;DHT22;6764;53.250;10.410;2023-02-15T08:19:09;3.80;99.90
13389;DHT22;6764;53.250;10.410;2023-02-15T08:21:37;3.80;99.90
13389;DHT22;6764;53.250;10.410;2023-02-15T08:24:04;3.90;99.90
13389;DHT22;6764;53.250;10.410;2023-02-15T08:26:31;4.00;99.90
13389;DHT22;6764;53.250;10.410;2023-02-15T08:28:57;4.10;99.90
13389;DHT22;6764;53.250;10.410;2023-02-15T08:31:23;4.20;99.90
13389;DHT22;6764;53.250;10.410;2023-02-15T08:33:51;4.30;99.90
13389;DHT22;6764;53.250;10.410;2023-02-15T08:36:19;4.50;99.90
13389;DHT22;6764;53.250;10.410;2023-02-15T08:38:45;4.40;99.90
13389;DHT22;6764;53.250;10.410;2023-02-15T08:41:19;4.60;99.90
13389;DHT22;6764;53.250;10.410;2023-02-15T08:43:47;4.60;99.90
13389;DHT22;6764;53.250;10.410;2023-02-15T08:46:15;4.70;99.90
13389;DHT22;6764;53.250;10.410;2023-02-15T08:48:40;4.80;99.90
13389;DHT22;6764;53.250;10.410;2023-02-15T08:51:09;4.90;99.90
13389;DHT22;6764;53.250;10.410;2023-02-15T08:53:36;4.90;99.90
13389;DHT22;6764;53.250;10.410;2023-02-15T08:56:02;5.00;99.90
13389;DHT22;6764;53.250;10.410;2023-02-15T08:58:29;5.20;99.90
13389;DHT22;6764;53.250;10.410;2023-02-15T09:00:56;5.20;99.90
13389;DHT22;6764;53.250;10.410;2023-02-15T09:03:21;5.20;99.90
13389;DHT22;6764;53.250;10.410;2023-02-15T09:05:47;5.20;99.90
13389;DHT22;6764;53.250;10.410;2023-02-15T09:08:12;5.30;99.90
13389;DHT22;6764;53.250;10.410;2023-02-15T09:10:38;5.30;99.90
13389;DHT22;6764;53.250;10.410;2023-02-15T09:13:04;5.10;99.90
13389;DHT22;6764;53.250;10.410;2023-02-15T09:15:29;5.10;99.90
13389;DHT22;6764;53.250;10.410;2023-02-15T09:17:55;5.20;99.90
13389;DHT22;6764;53.250;10.410;2023-02-15T09:20:21;5.30;99.90
13389;DHT22;6764;53.250;10.410;2023-02-15T09:22:47;5.50;99.90
13389;DHT22;6764;53.250;10.410;2023-02-15T09:25:13;5.40;99.90
13389;DHT22;6764;53.250;10.410;2023-02-15T09:27:39;5.40;99.90
13389;DHT22;6764;53.250;10.410;2023-02-15T09:30:06;5.40;99.90
13389;DHT22;6764;53.250;10.410;2023-02-15T09:32:31;5.30;99.90
13389;DHT22;6764;53.250;10.410;2023-02-15T09:34:57;5.40;99.90
13389;DHT22;6764;53.250;10.410;2023-02-15T09:37:22;5.30;99.90
13389;DHT22;6764;53.250;10.410;2023-02-15T09:39:48;5.30;99.90
13389;DHT22;6764;53.250;10.410;2023-02-15T09:48:38;5.40;99.90
13389;DHT22;6764;53.250;10.410;2023-02-15T09:51:13;5.60;99.90
13389;DHT22;6764;53.250;10.410;2023-02-15T09:56:55;5.50;99.90
13389;DHT22;6764;53.250;10.410;2023-02-15T09:59:28;5.30;99.90
13389;DHT22;6764;53.250;10.410;2023-02-15T10:13:18;5.50;99.90
13389;DHT22;6764;53.250;10.410;2023-02-15T10:16:00;5.70;99.90
13389;DHT22;6764;53.250;10.410;2023-02-15T10:18:49;5.70;99.90
13389;DHT22;6764;53.250;10.410;2023-02-15T10:23:50;6.10;99.90
13389;DHT22;6764;53.250;10.410;2023-02-15T10:26:32;6.20;99.90
13389;DHT22;6764;53.250;10.410;2023-02-15T10:29:35;6.10;99.90
13389;DHT22;6764;53.250;10.410;2023-02-15T10:32:24;6.20;99.90
13389;DHT22;6764;53.250;10.410;2023-02-15T10:35:47;6.20;99.90
13389;DHT22;6764;53.250;10.410;2023-02-15T10:38:40;6.30;99.90
13389;DHT22;6764;53.250;10.410;2023-02-15T10:44:00;6.90;99.90
13389;DHT22;6764;53.250;10.410;2023-02-15T10:47:03;7.10;99.90
13389;DHT22;6764;53.250;10.410;2023-02-15T10:50:03;7.20;99.90
13389;DHT22;6764;53.250;10.410;2023-02-15T10:55:29;7.50;99.90
13389;DHT22;6764;53.250;10.410;2023-02-15T11:00:46;7.70;99.90
13389;DHT22;6764;53.250;10.410;2023-02-15T11:06:13;7.70;99.90
13389;DHT22;6764;53.250;10.410;2023-02-15T11:08:44;7.90;99.90
13389;DHT22;6764;53.250;10.410;2023-02-15T11:11:23;8.20;99.90
13389;DHT22;6764;53.250;10.410;2023-02-15T11:13:54;8.30;99.90
13389;DHT22;6764;53.250;10.410;2023-02-15T11:16:34;8.40;99.90
13389;DHT22;6764;53.250;10.410;2023-02-15T11:19:08;8.40;99.90
13389;DHT22;6764;53.250;10.410;2023-02-15T11:21:39;8.20;99.90
13389;DHT22;6764;53.250;10.410;2023-02-15T11:24:12;8.20;99.90
13389;DHT22;6764;53.250;10.410;2023-02-15T11:27:24;8.30;99.90
13389;DHT22;6764;53.250;10.410;2023-02-15T11:32:30;8.20;99.90
13389;DHT22;6764;53.250;10.410;2023-02-15T11:35:15;8.30;99.90
13389;DHT22;6764;53.250;10.410;2023-02-15T11:38:10;8.30;99.90
13389;DHT22;6764;53.250;10.410;2023-02-15T11:40:47;8.30;99.90
13389;DHT22;6764;53.250;10.410;2023-02-15T11:43:17;8.40;99.90
13389;DHT22;6764;53.250;10.410;2023-02-15T11:45:46;8.30;99.90
13389;DHT22;6764;53.250;10.410;2023-02-15T11:48:14;8.40;99.90
13389;DHT22;6764;53.250;10.410;2023-02-15T11:50:41;8.20;99.90
13389;DHT22;6764;53.250;10.410;2023-02-15T11:53:15;8.10;99.90
13389;DHT22;6764;53.250;10.410;2023-02-15T11:55:45;8.10;99.90
13389;DHT22;6764;53.250;10.410;2023-02-15T12:03:56;8.10;99.90
13389;DHT22;6764;53.250;10.410;2023-02-15T12:06:30;8.10;99.90
13389;DHT22;6764;53.250;10.410;2023-02-15T12:11:38;8.20;99.90
13389;DHT22;6764;53.250;10.410;2023-02-15T12:14:06;8.20;99.90
13389;DHT22;6764;53.250;10.410;2023-02-15T12:16:44;8.20;99.90
13389;DHT22;6764;53.250;10.410;2023-02-15T12:19:29;8.40;99.90
13389;DHT22;6764;53.250;10.410;2023-02-15T12:21:57;8.50;99.90
13389;DHT22;6764;53.250;10.410;2023-02-15T12:24:27;8.60;99.90
13389;DHT22;6764;53.250;10.410;2023-02-15T12:27:26;8.60;99.90
13389;DHT22;6764;53.250;10.410;2023-02-15T12:30:03;8.60;99.90
13389;DHT22;6764;53.250;10.410;2023-02-15T12:32:46;8.60;99.90
13389;DHT22;6764;53.250;10.410;2023-02-15T12:35:28;8.50;99.90
13389;DHT22;6764;53.250;10.410;2023-02-15T12:43:35;8.70;99.90
13389;DHT22;6764;53.250;10.410;2023-02-15T12:46:25;8.70;99.90
13389;DHT22;6764;53.250;10.410;2023-02-15T12:51:50;8.80;99.90
13389;DHT22;6764;53.250;10.410;2023-02-15T12:54:38;8.80;99.90
13389;DHT22;6764;53.250;10.410;2023-02-15T12:59:53;9.00;99.90
13389;DHT22;6764;53.250;10.410;2023-02-15T13:02:29;9.10;99.90
13389;DHT22;6764;53.250;10.410;2023-02-15T13:04:57;9.10;99.90
13389;DHT22;6764;53.250;10.410;2023-02-15T13:07:30;9.20;99.90
13389;DHT22;6764;53.250;10.410;2023-02-15T13:09:57;9.30;99.90
13389;DHT22;6764;53.250;10.410;2023-02-15T13:12:25;9.30;99.90
13389;DHT22;6764;53.250;10.410;2023-02-15T13:14:56;9.20;99.90
13389;DHT22;6764;53.250;10.410;2023-02-15T13:17:28;9.30;99.90
13389;DHT22;6764;53.250;10.410;2023-02-15T13:20:06;9.30;99.90
13389;DHT22;6764;53.250;10.410;2023-02-15T13:22:42;9.50;99.90
13389;DHT22;6764;53.250;10.410;2023-02-15T13:27:42;9.50;99.90
13389;DHT22;6764;53.250;10.410;2023-02-15T13:30:21;9.50;99.90
13389;DHT22;6764;53.250;10.410;2023-02-15T13:32:49;9.50;99.90
13389;DHT22;6764;53.250;10.410;2023-02-15T13:35:17;9.50;99.90
13389;DHT22;6764;53.250;10.410;2023-02-15T13:46:47;9.80;99.90
13389;DHT22;6764;53.250;10.410;2023-02-15T13:52:01;10.10;99.90
13389;DHT22;6764;53.250;10.410;2023-02-15T14:19:37;10.30;99.90
13389;DHT22;6764;53.250;10.410;2023-02-15T14:24:59;10.10;99.90
13389;DHT22;6764;53.250;10.410;2023-02-15T14:30:16;10.10;99.90
13389;DHT22;6764;53.250;10.410;2023-02-15T14:32:49;10.00;99.90
13389;DHT22;6764;53.250;10.410;2023-02-15T14:35:19;10.00;99.90
13389;DHT22;6764;53.250;10.410;2023-02-15T14:40:58;10.00;99.90
13389;DHT22;6764;53.250;10.410;2023-02-15T14:46:36;10.00;99.90
13389;DHT22;6764;53.250;10.410;2023-02-15T14:49:10;10.10;99.90
13389;DHT22;6764;53.250;10.410;2023-02-15T14:54:06;10.10;99.90
13389;DHT22;6764;53.250;10.410;2023-02-15T14:56:32;10.20;99.90
13389;DHT22;6764;53.250;10.410;2023-02-15T14:59:00;10.20;99.90
13389;DHT22;6764;53.250;10.410;2023-02-15T15:01:35;10.20;99.90
13389;DHT22;6764;53.250;10.410;2023-02-15T15:04:09;10.10;99.90
13389;DHT22;6764;53.250;10.410;2023-02-15T15:06:38;10.00;99.90
13389;DHT22;6764;53.250;10.410;2023-02-15T15:11:54;10.00;99.90
13389;DHT22;6764;53.250;10.410;2023-02-15T15:16:59;10.10;99.90
13389;DHT22;6764;53.250;10.410;2023-02-15T15:24:48;10.00;99.90
13389;DHT22;6764;53.250;10.410;2023-02-15T15:27:52;10.00;99.90
13389;DHT22;6764;53.250;10.410;2023-02-15T15:49:31;9.80;99.90
13389;DHT22;6764;53.250;10.410;2023-02-15T15:52:00;9.80;99.90
13389;DHT22;6764;53.250;10.410;2023-02-15T15:54:26;9.70;99.90
13389;DHT22;6764;53.250;10.410;2023-02-15T15:57:02;9.80;99.90
13389;DHT22;6764;53.250;10.410;2023-02-15T15:59:33;9.80;99.90
13389;DHT22;6764;53.250;10.410;2023-02-15T16:02:13;9.70;99.90
13389;DHT22;6764;53.250;10.410;2023-02-15T16:04:41;9.60;99.90
13389;DHT22;6764;53.250;10.410;2023-02-15T16:12:19;9.40;99.90
13389;DHT22;6764;53.250;10.410;2023-02-15T16:14:45;9.40;99.90
13389;DHT22;6764;53.250;10.410;2023-02-15T16:17:28;9.30;99.90
13389;DHT22;6764;53.250;10.410;2023-02-15T16:20:14;9.30;99.90
13389;DHT22;6764;53.250;10.410;2023-02-15T16:22:40;9.30;99.90
13389;DHT22;6764;53.250;10.410;2023-02-15T16:27:49;9.30;99.90
13389;DHT22;6764;53.250;10.410;2023-02-15T16:33:16;9.20;99.90
13389;DHT22;6764;53.250;10.410;2023-02-15T16:36:01;9.10;99.90
13389;DHT22;6764;53.250;10.410;2023-02-15T16:41:14;9.10;99.90
13389;DHT22;6764;53.250;10.410;2023-02-15T16:43:43;9.10;99.90
13389;DHT22;6764;53.250;10.410;2023-02-15T16:46:17;9.10;99.90
13389;DHT22;6764;53.250;10.410;2023-02-15T16:48:46;9.00;99.90
13389;DHT22;6764;53.250;10.410;2023-02-15T16:51:21;8.90;99.90
13389;DHT22;6764;53.250;10.410;2023-02-15T16:53:48;8.90;99.90
13389;DHT22;6764;53.250;10.410;2023-02-15T16:56:14;9.00;99.90
13389;DHT22;6764;53.250;10.410;2023-02-15T16:58:43;8.90;99.90
13389;DHT22;6764;53.250;10.410;2023-02-15T17:01:12;8.80;99.90
13389;DHT22;6764;53.250;10.410;2023-02-15T17:03:41;8.80;99.90
13389;DHT22;6764;53.250;10.410;2023-02-15T17:06:27;8.80;99.90
13389;DHT22;6764;53.250;10.410;2023-02-15T17:09:03;8.80;99.90
13389;DHT22;6764;53.250;10.410;2023-02-15T17:11:43;8.70;99.90
13389;DHT22;6764;53.250;10.410;2023-02-15T17:16:54;8.70;99.90
13389;DHT22;6764;53.250;10.410;2023-02-15T17:19:32;8.70;99.90
13389;DHT22;6764;53.250;10.410;2023-02-15T17:22:02;8.60;99.90
13389;DHT22;6764;53.250;10.410;2023-02-15T17:27:21;8.60;99.90
13389;DHT22;6764;53.250;10.410;2023-02-15T17:29:56;8.50;99.90
13389;DHT22;6764;53.250;10.410;2023-02-15T17:32:24;8.50;99.90
13389;DHT22;6764;53.250;10.410;2023-02-15T17:40:25;8.40;99.90
13389;DHT22;6764;53.250;10.410;2023-02-15T17:42:51;8.40;99.90
13389;DHT22;6764;53.250;10.410;2023-02-15T17:45:18;8.40;99.90
13389;DHT22;6764;53.250;10.410;2023-02-15T17:47:46;8.30;99.90
13389;DHT22;6764;53.250;10.410;2023-02-15T17:50:21;8.30;99.90
13389;DHT22;6764;53.250;10.410;2023-02-15T17:52:47;8.30;99.90
13389;DHT22;6764;53.250;10.410;2023-02-15T17:55:15;8.20;99.90
13389;DHT22;6764;53.250;10.410;2023-02-15T17:58:02;8.20;99.90
13389;DHT22;6764;53.250;10.410;2023-02-15T18:00:30;8.20;99.90
13389;DHT22;6764;53.250;10.410;2023-02-15T18:03:15;8.20;99.90
13389;DHT22;6764;53.250;10.410;2023-02-15T18:06:00;8.20;99.90
13389;DHT22;6764;53.250;10.410;2023-02-15T18:08:45;8.20;99.90
13389;DHT22;6764;53.250;10.410;2023-02-15T18:11:29;8.20;99.90
13389;DHT22;6764;53.250;10.410;2023-02-15T18:14:08;8.20;99.90
13389;DHT22;6764;53.250;10.410;2023-02-15T18:16:40;8.20;99.90
13389;DHT22;6764;53.250;10.410;2023-02-15T18:19:16;8.00;99.90
13389;DHT22;6764;53.250;10.410;2023-02-15T18:21:43;8.00;99.90
13389;DHT22;6764;53.250;10.410;2023-02-15T18:24:20;7.90;99.90
13389;DHT22;6764;53.250;10.410;2023-02-15T18:26:48;7.90;99.90
13389;DHT22;6764;53.250;10.410;2023-02-15T18:29:14;7.90;99.90
13389;DHT22;6764;53.250;10.410;2023-02-15T18:31:41;7.80;99.90
13389;DHT22;6764;53.250;10.410;2023-02-15T18:36:53;7.80;99.90
13389;DHT22;6764;53.250;10.410;2023-02-15T18:39:28;7.80;99.90
13389;DHT22;6764;53.250;10.410;2023-02-15T18:41:54;7.80;99.90
13389;DHT22;6764;53.250;10.410;2023-02-15T18:44:20;7.80;99.90
13389;DHT22;6764;53.250;10.410;2023-02-15T18:46:45;7.80;99.90
13389;DHT22;6764;53.250;10.410;2023-02-15T18:49:11;7.80;99.90
13389;DHT22;6764;53.250;10.410;2023-02-15T18:51:37;7.70;99.90
13389;DHT22;6764;53.250;10.410;2023-02-15T18:54:05;7.70;99.90
13389;DHT22;6764;53.250;10.410;2023-02-15T18:56:36;7.60;99.90
13389;DHT22;6764;53.250;10.410;2023-02-15T18:59:02;7.60;99.90
13389;DHT22;6764;53.250;10.410;2023-02-15T19:01:27;7.60;99.90
13389;DHT22;6764;53.250;10.410;2023-02-15T19:03:53;7.60;99.90
13389;DHT22;6764;53.250;10.410;2023-02-15T19:06:20;7.60;99.90
13389;DHT22;6764;53.250;10.410;2023-02-15T19:08:48;7.60;99.90
13389;DHT22;6764;53.250;10.410;2023-02-15T19:11:18;7.50;99.90
13389;DHT22;6764;53.250;10.410;2023-02-15T19:13:45;7.50;99.90
13389;DHT22;6764;53.250;10.410;2023-02-15T19:18:51;7.40;99.90
13389;DHT22;6764;53.250;10.410;2023-02-15T19:21:17;7.40;99.90
13389;DHT22;6764;53.250;10.410;2023-02-15T19:23:45;7.30;99.90
13389;DHT22;6764;53.250;10.410;2023-02-15T19:26:12;7.30;99.90
13389;DHT22;6764;53.250;10.410;2023-02-15T19:28:38;7.30;99.90